createdAt,value
2018-12-15T00:00:35.081Z,1026.1
2018-12-15T00:01:35.072Z,1026.11
2018-12-15T00:02:35.298Z,1026.11
2018-12-15T00:03:35.536Z,1026.12
2018-12-15T00:04:35.597Z,1026.11
2018-12-15T00:05:35.623Z,1026.15
2018-12-15T00:06:35.639Z,1026.1
2018-12-15T00:07:35.664Z,1026.08
2018-12-15T00:08:35.682Z,1026.08
2018-12-15T00:09:35.714Z,1026.1
2018-12-15T00:10:35.735Z,1026.07
2018-12-15T00:11:35.758Z,1026.06
2018-12-15T00:12:35.775Z,1026.12
2018-12-15T00:13:35.793Z,1026.15
2018-12-15T00:14:35.817Z,1026.15
2018-12-15T00:15:35.834Z,1026.18
2018-12-15T00:16:35.862Z,1026.14
2018-12-15T00:17:35.880Z,1026.15
2018-12-15T00:18:36.015Z,1026.14
2018-12-15T00:19:35.916Z,1026.14
2018-12-15T00:20:35.940Z,1026.14
2018-12-15T00:21:35.966Z,1026.06
2018-12-15T00:22:35.985Z,1026.07
2018-12-15T00:23:36.225Z,1026.12
2018-12-15T00:24:36.246Z,1026.13
2018-12-15T00:25:36.267Z,1026.14
2018-12-15T00:26:36.287Z,1026.13
2018-12-15T00:27:36.313Z,1026.14
2018-12-15T00:28:36.330Z,1026.16
2018-12-15T00:29:36.354Z,1026.17
2018-12-15T00:30:36.378Z,1026.16
2018-12-15T00:31:36.400Z,1026.22
2018-12-15T00:32:36.415Z,1026.19
2018-12-15T00:33:36.432Z,1026.22
2018-12-15T00:34:36.458Z,1026.27
2018-12-15T00:35:36.467Z,1026.21
2018-12-15T00:36:36.524Z,1026.25
2018-12-15T00:37:36.969Z,1026.22
2018-12-15T00:38:36.791Z,1026.23
2018-12-15T00:39:36.812Z,1026.2
2018-12-15T00:40:36.831Z,1026.26
2018-12-15T00:41:36.849Z,1026.23
2018-12-15T00:42:36.885Z,1026.25
2018-12-15T00:43:37.090Z,1026.28
2018-12-15T00:44:37.108Z,1026.29
2018-12-15T00:45:37.126Z,1026.26
2018-12-15T00:46:37.205Z,1026.28
2018-12-15T00:47:37.171Z,1026.25
2018-12-15T00:48:37.191Z,1026.3
2018-12-15T00:49:37.213Z,1026.31
2018-12-15T00:50:37.231Z,1026.31
2018-12-15T00:51:37.254Z,1026.32
2018-12-15T00:52:37.271Z,1026.33
2018-12-15T00:53:37.290Z,1026.31
2018-12-15T00:54:37.636Z,1026.33
2018-12-15T00:55:37.338Z,1026.31
2018-12-15T00:56:37.385Z,1026.31
2018-12-15T00:57:37.377Z,1026.31
2018-12-15T00:58:37.398Z,1026.29
2018-12-15T00:59:37.414Z,1026.28
2018-12-15T01:00:37.420Z,1026.34
2018-12-15T01:01:37.438Z,1026.36
2018-12-15T01:02:37.774Z,1026.33
2018-12-15T01:03:37.587Z,1026.38
2018-12-15T01:04:37.603Z,1026.31
2018-12-15T01:05:37.609Z,1026.3
2018-12-15T01:06:37.653Z,1026.3
2018-12-15T01:07:37.671Z,1026.28
2018-12-15T01:08:37.682Z,1026.31
2018-12-15T01:09:37.702Z,1026.3
2018-12-15T01:10:38.639Z,1026.31
2018-12-15T01:11:38.889Z,1026.32
2018-12-15T01:12:38.584Z,1026.35
2018-12-15T01:13:38.722Z,1026.36
2018-12-15T01:14:39.584Z,1026.33
2018-12-15T01:15:39.682Z,1026.33
2018-12-15T01:16:39.314Z,1026.31
2018-12-15T01:17:39.343Z,1026.36
2018-12-15T01:18:39.361Z,1026.31
2018-12-15T01:19:39.575Z,1026.27
2018-12-15T01:20:39.862Z,1026.29
2018-12-15T01:21:39.975Z,1026.33
2018-12-15T01:22:39.880Z,1026.29
2018-12-15T01:23:39.919Z,1026.26
2018-12-15T01:24:40.091Z,1026.26
2018-12-15T01:25:40.067Z,1026.27
2018-12-15T01:26:40.075Z,1026.25
2018-12-15T01:27:40.410Z,1026.23
2018-12-15T01:28:40.394Z,1026.21
2018-12-15T01:29:40.140Z,1026.24
2018-12-15T01:30:40.187Z,1026.21
2018-12-15T01:31:40.288Z,1026.21
2018-12-15T01:32:40.221Z,1026.25
2018-12-15T01:33:40.258Z,1026.23
2018-12-15T01:34:40.451Z,1026.28
2018-12-15T01:35:40.266Z,1026.29
2018-12-15T01:36:40.281Z,1026.3
2018-12-15T01:37:40.312Z,1026.26
2018-12-15T01:38:40.442Z,1026.28
2018-12-15T01:40:47.934Z,1026.36
2018-12-15T01:41:47.947Z,1026.37
2018-12-15T01:42:47.966Z,1026.35
2018-12-15T01:43:47.987Z,1026.38
2018-12-15T01:44:48.011Z,1026.37
2018-12-15T01:45:48.311Z,1026.33
2018-12-15T01:46:48.328Z,1026.32
2018-12-15T01:47:48.356Z,1026.31
2018-12-15T01:48:48.371Z,1026.34
2018-12-15T01:49:48.395Z,1026.34
2018-12-15T01:50:48.414Z,1026.33
2018-12-15T01:51:48.435Z,1026.33
2018-12-15T01:52:48.451Z,1026.33
2018-12-15T01:53:48.652Z,1026.31
2018-12-15T01:54:48.671Z,1026.33
2018-12-15T01:55:49.134Z,1026.31
2018-12-15T01:56:49.420Z,1026.32
2018-12-15T01:57:49.440Z,1026.33
2018-12-15T01:58:49.192Z,1026.29
2018-12-15T01:59:49.209Z,1026.28
2018-12-15T02:00:49.235Z,1026.34
2018-12-15T02:01:49.699Z,1026.28
2018-12-15T02:02:49.721Z,1026.34
2018-12-15T02:03:49.748Z,1026.23
2018-12-15T02:04:49.758Z,1026.29
2018-12-15T02:05:49.787Z,1026.35
2018-12-15T02:06:49.799Z,1026.26
2018-12-15T02:07:49.821Z,1026.27
2018-12-15T02:08:49.846Z,1026.25
2018-12-15T02:09:49.865Z,1026.25
2018-12-15T02:10:49.884Z,1026.33
2018-12-15T02:11:50.989Z,1026.27
2018-12-15T02:12:49.921Z,1026.3
2018-12-15T02:13:49.947Z,1026.31
2018-12-15T02:14:49.964Z,1026.28
2018-12-15T02:15:50.225Z,1026.36
2018-12-15T02:16:50.250Z,1026.33
2018-12-15T02:17:50.264Z,1026.36
2018-12-15T02:18:50.730Z,1026.32
2018-12-15T02:19:50.745Z,1026.37
2018-12-15T02:20:50.763Z,1026.34
2018-12-15T02:21:51.038Z,1026.39
2018-12-15T02:22:51.063Z,1026.36
2018-12-15T02:23:51.082Z,1026.36
2018-12-15T02:24:51.103Z,1026.35
2018-12-15T02:25:51.114Z,1026.32
2018-12-15T02:26:51.139Z,1026.37
2018-12-15T02:27:51.162Z,1026.35
2018-12-15T02:28:51.177Z,1026.36
2018-12-15T02:29:51.202Z,1026.34
2018-12-15T02:30:51.261Z,1026.36
2018-12-15T02:31:51.265Z,1026.3
2018-12-15T02:32:51.314Z,1026.37
2018-12-15T02:33:51.277Z,1026.39
2018-12-15T02:34:51.299Z,1026.34
2018-12-15T02:35:51.318Z,1026.41
2018-12-15T02:36:51.344Z,1026.36
2018-12-15T02:37:51.361Z,1026.42
2018-12-15T02:38:51.387Z,1026.33
2018-12-15T02:39:51.397Z,1026.33
2018-12-15T02:40:51.867Z,1026.3
2018-12-15T02:41:52.332Z,1026.32
2018-12-15T02:42:52.346Z,1026.31
2018-12-15T02:43:52.575Z,1026.31
2018-12-15T02:44:52.585Z,1026.31
2018-12-15T02:45:52.605Z,1026.28
2018-12-15T02:46:52.625Z,1026.34
2018-12-15T02:47:52.647Z,1026.3
2018-12-15T02:48:52.664Z,1026.32
2018-12-15T02:49:52.871Z,1026.28
2018-12-15T02:50:52.889Z,1026.33
2018-12-15T02:51:52.909Z,1026.32
2018-12-15T02:52:52.933Z,1026.32
2018-12-15T02:53:52.950Z,1026.38
2018-12-15T02:54:52.967Z,1026.37
2018-12-15T02:55:52.981Z,1026.24
2018-12-15T02:56:53.017Z,1026.32
2018-12-15T02:57:53.346Z,1026.28
2018-12-15T02:58:53.364Z,1026.3
2018-12-15T02:59:53.387Z,1026.27
2018-12-15T03:00:53.403Z,1026.31
2018-12-15T03:01:53.414Z,1026.34
2018-12-15T03:02:53.712Z,1026.31
2018-12-15T03:03:53.732Z,1026.3
2018-12-15T03:04:53.761Z,1026.35
2018-12-15T03:05:53.790Z,1026.33
2018-12-15T03:06:53.790Z,1026.38
2018-12-15T03:07:53.822Z,1026.4
2018-12-15T03:08:53.832Z,1026.41
2018-12-15T03:09:53.864Z,1026.44
2018-12-15T03:10:53.874Z,1026.43
2018-12-15T03:11:53.899Z,1026.43
2018-12-15T03:12:53.912Z,1026.39
2018-12-15T03:13:53.940Z,1026.45
2018-12-15T03:14:53.965Z,1026.45
2018-12-15T03:15:53.974Z,1026.38
2018-12-15T03:16:53.999Z,1026.39
2018-12-15T03:17:54.026Z,1026.41
2018-12-15T03:18:54.046Z,1026.4
2018-12-15T03:19:54.309Z,1026.42
2018-12-15T03:20:54.332Z,1026.4
2018-12-15T03:21:54.356Z,1026.41
2018-12-15T03:22:54.373Z,1026.42
2018-12-15T03:23:54.392Z,1026.46
2018-12-15T03:24:54.407Z,1026.47
2018-12-15T03:25:54.442Z,1026.48
2018-12-15T03:26:54.462Z,1026.47
2018-12-15T03:27:54.905Z,1026.43
2018-12-15T03:28:55.114Z,1026.49
2018-12-15T03:29:55.126Z,1026.45
2018-12-15T03:30:55.448Z,1026.49
2018-12-15T03:31:55.478Z,1026.54
2018-12-15T03:32:55.497Z,1026.56
2018-12-15T03:33:55.516Z,1026.55
2018-12-15T03:34:55.528Z,1026.52
2018-12-15T03:35:55.546Z,1026.59
2018-12-15T03:36:55.567Z,1026.61
2018-12-15T03:37:55.589Z,1026.61
2018-12-15T03:38:55.616Z,1026.53
2018-12-15T03:39:55.627Z,1026.56
2018-12-15T03:40:55.655Z,1026.56
2018-12-15T03:41:55.669Z,1026.5
2018-12-15T03:42:56.095Z,1026.51
2018-12-15T03:43:56.114Z,1026.51
2018-12-15T03:44:56.144Z,1026.53
2018-12-15T03:45:56.157Z,1026.58
2018-12-15T03:46:56.180Z,1026.48
2018-12-15T03:47:57.002Z,1026.54
2018-12-15T03:48:57.002Z,1026.47
2018-12-15T03:49:57.021Z,1026.51
2018-12-15T03:50:57.042Z,1026.46
2018-12-15T03:51:57.074Z,1026.46
2018-12-15T03:52:57.086Z,1026.45
2018-12-15T03:53:57.215Z,1026.5
2018-12-15T03:54:57.502Z,1026.48
2018-12-15T03:55:57.521Z,1026.5
2018-12-15T03:56:57.543Z,1026.49
2018-12-15T03:57:57.559Z,1026.48
2018-12-15T03:58:57.573Z,1026.45
2018-12-15T03:59:57.596Z,1026.41
2018-12-15T04:00:57.642Z,1026.48
2018-12-15T04:01:57.642Z,1026.41
2018-12-15T04:02:57.879Z,1026.45
2018-12-15T04:03:57.901Z,1026.47
2018-12-15T04:04:57.911Z,1026.46
2018-12-15T04:05:58.157Z,1026.45
2018-12-15T04:06:58.310Z,1026.46
2018-12-15T04:07:58.661Z,1026.46
2018-12-15T04:08:58.679Z,1026.44
2018-12-15T04:09:58.721Z,1026.46
2018-12-15T04:10:59.101Z,1026.44
2018-12-15T04:11:59.489Z,1026.47
2018-12-15T04:12:59.490Z,1026.47
2018-12-15T04:13:59.513Z,1026.44
2018-12-15T04:14:59.532Z,1026.38
2018-12-15T04:15:59.553Z,1026.47
2018-12-15T04:16:59.660Z,1026.44
2018-12-15T04:18:03.638Z,1026.47
2018-12-15T04:18:59.715Z,1026.52
2018-12-15T04:19:59.717Z,1026.5
2018-12-15T04:20:59.736Z,1026.49
2018-12-15T04:22:00.143Z,1026.49
2018-12-15T04:23:00.340Z,1026.51
2018-12-15T04:24:00.360Z,1026.51
2018-12-15T04:25:00.383Z,1026.52
2018-12-15T04:26:00.419Z,1026.55
2018-12-15T04:27:00.418Z,1026.48
2018-12-15T04:28:00.810Z,1026.47
2018-12-15T04:29:01.219Z,1026.46
2018-12-15T04:30:01.494Z,1026.54
2018-12-15T04:31:01.843Z,1026.47
2018-12-15T04:32:02.270Z,1026.54
2018-12-15T04:33:02.270Z,1026.48
2018-12-15T04:34:02.289Z,1026.48
2018-12-15T04:35:02.307Z,1026.49
2018-12-15T04:36:02.715Z,1026.49
2018-12-15T04:37:02.763Z,1026.47
2018-12-15T04:38:02.980Z,1026.51
2018-12-15T04:39:03.359Z,1026.54
2018-12-15T04:40:03.837Z,1026.53
2018-12-15T04:41:04.071Z,1026.5
2018-12-15T04:42:04.584Z,1026.5
2018-12-15T04:43:04.539Z,1026.49
2018-12-15T04:44:04.557Z,1026.47
2018-12-15T04:45:04.659Z,1026.49
2018-12-15T04:46:04.609Z,1026.5
2018-12-15T04:47:04.604Z,1026.49
2018-12-15T04:48:11.613Z,1026.5
2018-12-15T04:49:11.527Z,1026.53
2018-12-15T04:50:11.671Z,1026.47
2018-12-15T04:51:12.134Z,1026.52
2018-12-15T04:52:12.510Z,1026.54
2018-12-15T04:53:12.890Z,1026.53
2018-12-15T04:54:12.912Z,1026.56
2018-12-15T04:55:14.130Z,1026.55
2018-12-15T04:56:12.954Z,1026.54
2018-12-15T04:57:12.973Z,1026.53
2018-12-15T04:58:13.003Z,1026.54
2018-12-15T04:59:13.011Z,1026.51
2018-12-15T05:01:13.077Z,1026.57
2018-12-15T05:02:13.468Z,1026.55
2018-12-15T05:03:13.888Z,1026.53
2018-12-15T05:04:13.911Z,1026.54
2018-12-15T05:05:14.010Z,1026.54
2018-12-15T05:06:14.035Z,1026.53
2018-12-15T05:07:14.171Z,1026.49
2018-12-15T05:08:14.302Z,1026.49
2018-12-15T05:09:14.320Z,1026.49
2018-12-15T05:10:14.722Z,1026.49
2018-12-15T05:11:14.740Z,1026.55
2018-12-15T05:12:14.870Z,1026.53
2018-12-15T05:13:14.885Z,1026.48
2018-12-15T05:14:15.051Z,1026.45
2018-12-15T05:15:15.085Z,1026.49
2018-12-15T05:16:15.484Z,1026.48
2018-12-15T05:17:15.608Z,1026.5
2018-12-15T05:18:18.825Z,1026.48
2018-12-15T05:19:19.217Z,1026.48
2018-12-15T05:20:19.235Z,1026.48
2018-12-15T05:21:19.264Z,1026.49
2018-12-15T05:22:19.612Z,1026.42
2018-12-15T05:23:19.977Z,1026.48
2018-12-15T05:24:20.370Z,1026.43
2018-12-15T05:25:20.390Z,1026.38
2018-12-15T05:26:20.429Z,1026.42
2018-12-15T05:27:20.783Z,1026.42
2018-12-15T05:28:21.161Z,1026.45
2018-12-15T05:29:21.293Z,1026.41
2018-12-15T05:30:21.659Z,1026.36
2018-12-15T05:31:21.679Z,1026.41
2018-12-15T05:32:21.716Z,1026.38
2018-12-15T05:33:22.143Z,1026.38
2018-12-15T05:34:22.138Z,1026.39
2018-12-15T05:35:22.522Z,1026.42
2018-12-15T05:36:22.880Z,1026.39
2018-12-15T05:37:22.902Z,1026.46
2018-12-15T05:38:23.027Z,1026.43
2018-12-15T05:39:23.046Z,1026.44
2018-12-15T05:40:23.074Z,1026.46
2018-12-15T05:41:23.459Z,1026.47
2018-12-15T05:42:23.480Z,1026.5
2018-12-15T05:43:23.866Z,1026.48
2018-12-15T05:44:24.221Z,1026.48
2018-12-15T05:45:24.618Z,1026.51
2018-12-15T05:46:24.642Z,1026.52
2018-12-15T05:47:25.011Z,1026.5
2018-12-15T05:48:26.030Z,1026.53
2018-12-15T05:49:26.044Z,1026.52
2018-12-15T05:50:26.067Z,1026.57
2018-12-15T05:51:26.167Z,1026.53
2018-12-15T05:52:26.537Z,1026.49
2018-12-15T05:53:26.915Z,1026.43
2018-12-15T05:54:27.318Z,1026.46
2018-12-15T05:55:27.709Z,1026.51
2018-12-15T05:56:27.732Z,1026.51
2018-12-15T05:57:27.873Z,1026.52
2018-12-15T05:58:28.314Z,1026.55
2018-12-15T05:59:28.334Z,1026.53
2018-12-15T06:00:28.389Z,1026.59
2018-12-15T06:01:28.377Z,1026.56
2018-12-15T06:02:28.393Z,1026.58
2018-12-15T06:03:28.512Z,1026.6
2018-12-15T06:04:28.625Z,1026.57
2018-12-15T06:05:28.992Z,1026.61
2018-12-15T06:06:29.359Z,1026.59
2018-12-15T06:07:29.381Z,1026.58
2018-12-15T06:08:29.451Z,1026.63
2018-12-15T06:09:29.573Z,1026.61
2018-12-15T06:10:29.590Z,1026.61
2018-12-15T06:11:29.737Z,1026.61
2018-12-15T06:12:29.763Z,1026.62
2018-12-15T06:13:29.779Z,1026.6
2018-12-15T06:14:29.798Z,1026.58
2018-12-15T06:15:29.933Z,1026.64
2018-12-15T06:16:30.298Z,1026.62
2018-12-15T06:17:30.318Z,1026.69
2018-12-15T06:18:32.308Z,1026.64
2018-12-15T06:19:32.398Z,1026.69
2018-12-15T06:20:32.415Z,1026.64
2018-12-15T06:21:32.767Z,1026.67
2018-12-15T06:22:33.175Z,1026.65
2018-12-15T06:23:33.951Z,1026.7
2018-12-15T06:24:34.077Z,1026.71
2018-12-15T06:25:34.466Z,1026.67
2018-12-15T06:26:34.818Z,1026.72
2018-12-15T06:27:34.836Z,1026.74
2018-12-15T06:28:34.859Z,1026.8
2018-12-15T06:29:34.879Z,1026.8
2018-12-15T06:30:34.901Z,1026.79
2018-12-15T06:31:35.231Z,1026.71
2018-12-15T06:32:35.604Z,1026.75
2018-12-15T06:33:35.622Z,1026.73
2018-12-15T06:34:36.025Z,1026.76
2018-12-15T06:35:36.401Z,1026.76
2018-12-15T06:36:36.483Z,1026.78
2018-12-15T06:37:36.579Z,1026.81
2018-12-15T06:38:36.601Z,1026.83
2018-12-15T06:39:36.955Z,1026.84
2018-12-15T06:40:36.981Z,1026.83
2018-12-15T06:41:37.083Z,1026.75
2018-12-15T06:42:37.104Z,1026.79
2018-12-15T06:43:37.144Z,1026.79
2018-12-15T06:44:37.486Z,1026.85
2018-12-15T06:45:37.850Z,1026.81
2018-12-15T06:46:37.873Z,1026.81
2018-12-15T06:47:37.986Z,1026.79
2018-12-15T06:48:38.847Z,1026.81
2018-12-15T06:49:38.843Z,1026.74
2018-12-15T06:50:38.862Z,1026.73
2018-12-15T06:51:39.275Z,1026.73
2018-12-15T06:52:39.880Z,1026.75
2018-12-15T06:53:40.082Z,1026.7
2018-12-15T06:54:40.453Z,1026.72
2018-12-15T06:55:40.479Z,1026.72
2018-12-15T06:56:40.497Z,1026.72
2018-12-15T06:57:40.547Z,1026.75
2018-12-15T06:58:40.898Z,1026.7
2018-12-15T06:59:40.691Z,1026.68
2018-12-15T07:00:40.847Z,1026.7
2018-12-15T07:01:40.848Z,1026.69
2018-12-15T07:02:40.968Z,1026.75
2018-12-15T07:03:40.975Z,1026.72
2018-12-15T07:04:41.010Z,1026.73
2018-12-15T07:05:41.014Z,1026.79
2018-12-15T07:06:42.575Z,1026.74
2018-12-15T07:07:42.587Z,1026.78
2018-12-15T07:08:43.023Z,1026.79
2018-12-15T07:09:43.042Z,1026.76
2018-12-15T07:10:43.064Z,1026.76
2018-12-15T07:11:43.134Z,1026.79
2018-12-15T07:12:43.129Z,1026.76
2018-12-15T07:13:43.508Z,1026.76
2018-12-15T07:14:43.528Z,1026.74
2018-12-15T07:15:43.751Z,1026.76
2018-12-15T07:16:43.773Z,1026.77
2018-12-15T07:17:43.845Z,1026.8
2018-12-15T07:18:44.865Z,1026.77
2018-12-15T07:19:43.888Z,1026.87
2018-12-15T07:20:44.274Z,1026.82
2018-12-15T07:21:44.291Z,1026.89
2018-12-15T07:22:44.314Z,1026.87
2018-12-15T07:23:44.329Z,1026.9
2018-12-15T07:24:44.353Z,1026.94
2018-12-15T07:25:44.398Z,1026.94
2018-12-15T07:26:44.392Z,1026.97
2018-12-15T07:27:44.739Z,1026.99
2018-12-15T07:28:45.111Z,1026.97
2018-12-15T07:29:45.137Z,1026.96
2018-12-15T07:30:45.175Z,1026.95
2018-12-15T07:31:45.309Z,1026.94
2018-12-15T07:32:45.669Z,1026.97
2018-12-15T07:33:46.010Z,1026.98
2018-12-15T07:34:46.368Z,1027.01
2018-12-15T07:35:46.389Z,1026.96
2018-12-15T07:36:46.532Z,1027.01
2018-12-15T07:37:46.554Z,1026.92
2018-12-15T07:38:46.589Z,1026.95
2018-12-15T07:39:46.988Z,1026.99
2018-12-15T07:40:46.991Z,1026.95
2018-12-15T07:41:47.374Z,1026.95
2018-12-15T07:42:47.750Z,1026.98
2018-12-15T07:43:47.799Z,1026.93
2018-12-15T07:44:48.143Z,1026.97
2018-12-15T07:45:48.523Z,1026.99
2018-12-15T07:46:48.677Z,1026.94
2018-12-15T07:47:48.696Z,1026.9
2018-12-15T07:48:51.438Z,1026.91
2018-12-15T07:49:48.737Z,1026.99
2018-12-15T07:50:48.870Z,1026.95
2018-12-15T07:51:49.147Z,1027
2018-12-15T07:52:49.171Z,1027.02
2018-12-15T07:53:49.189Z,1027.03
2018-12-15T07:54:49.530Z,1027.05
2018-12-15T07:55:49.549Z,1027.09
2018-12-15T07:56:49.676Z,1027.12
2018-12-15T07:57:50.022Z,1027.13
2018-12-15T07:58:50.383Z,1027.15
2018-12-15T07:59:50.405Z,1027.22
2018-12-15T08:00:50.426Z,1027.13
2018-12-15T08:01:50.448Z,1027.15
2018-12-15T08:02:50.494Z,1027.13
2018-12-15T08:03:50.503Z,1027.13
2018-12-15T08:04:50.516Z,1027.12
2018-12-15T08:05:50.532Z,1027.1
2018-12-15T08:06:50.566Z,1027.08
2018-12-15T08:07:50.591Z,1027.04
2018-12-15T08:08:50.598Z,1027.05
2018-12-15T08:09:50.767Z,1027.04
2018-12-15T08:10:50.797Z,1027.01
2018-12-15T08:11:50.793Z,1027.04
2018-12-15T08:12:50.829Z,1027.03
2018-12-15T08:13:50.846Z,1027.04
2018-12-15T08:14:51.302Z,1027.07
2018-12-15T08:15:51.330Z,1027.09
2018-12-15T08:16:51.336Z,1027.08
2018-12-15T08:17:51.782Z,1027.06
2018-12-15T08:18:58.531Z,1027.09
2018-12-15T08:19:58.530Z,1027.08
2018-12-15T08:20:58.556Z,1027.06
2018-12-15T08:21:58.588Z,1027.1
2018-12-15T08:22:58.596Z,1027.07
2018-12-15T08:23:58.624Z,1027.08
2018-12-15T08:24:59.023Z,1027.11
2018-12-15T08:25:59.446Z,1027.01
2018-12-15T08:26:59.451Z,1027.01
2018-12-15T08:27:59.484Z,1027.06
2018-12-15T08:28:59.500Z,1027.05
2018-12-15T08:29:59.514Z,1027.08
2018-12-15T08:30:59.980Z,1027.02
2018-12-15T08:32:00.422Z,1026.98
2018-12-15T08:33:00.444Z,1027.05
2018-12-15T08:34:00.473Z,1027.03
2018-12-15T08:35:00.897Z,1027
2018-12-15T08:36:00.911Z,1027.1
2018-12-15T08:37:01.301Z,1027.02
2018-12-15T08:38:01.325Z,1027.03
2018-12-15T08:39:01.341Z,1027.04
2018-12-15T08:40:01.723Z,1027.02
2018-12-15T08:41:01.747Z,1026.99
2018-12-15T08:42:01.770Z,1027.04
2018-12-15T08:43:01.794Z,1027.02
2018-12-15T08:44:02.228Z,1027.01
2018-12-15T08:45:02.240Z,1027.1
2018-12-15T08:46:02.261Z,1027.04
2018-12-15T08:47:02.658Z,1027.02
2018-12-15T08:48:02.664Z,1027.08
2018-12-15T08:49:04.669Z,1027.03
2018-12-15T08:50:02.717Z,1027.04
2018-12-15T08:51:02.742Z,1027.01
2018-12-15T08:52:02.749Z,1027.09
2018-12-15T08:53:03.191Z,1027.06
2018-12-15T08:54:03.225Z,1027.05
2018-12-15T08:55:03.396Z,1027.09
2018-12-15T08:56:03.842Z,1027.05
2018-12-15T08:57:03.860Z,1027.04
2018-12-15T08:58:03.878Z,1027.04
2018-12-15T08:59:03.904Z,1027.04
2018-12-15T09:01:03.976Z,1027.07
2018-12-15T09:02:04.375Z,1027.08
2018-12-15T09:03:04.365Z,1027.05
2018-12-15T09:04:04.515Z,1027
2018-12-15T09:05:05.032Z,1027.07
2018-12-15T09:06:04.985Z,1027.04
2018-12-15T09:07:05.100Z,1027.06
2018-12-15T09:08:05.122Z,1027.01
2018-12-15T09:09:05.144Z,1027.04
2018-12-15T09:10:05.607Z,1027.04
2018-12-15T09:11:05.969Z,1027.04
2018-12-15T09:12:05.991Z,1027.03
2018-12-15T09:13:06.181Z,1027.06
2018-12-15T09:14:06.544Z,1027.02
2018-12-15T09:15:06.562Z,1027.05
2018-12-15T09:16:06.581Z,1027
2018-12-15T09:17:06.942Z,1027
2018-12-15T09:18:07.284Z,1027.04
2018-12-15T09:19:11.127Z,1027.03
2018-12-15T09:20:07.327Z,1027.01
2018-12-15T09:21:07.349Z,1027
2018-12-15T09:22:11.299Z,1026.94
2018-12-15T09:23:07.411Z,1026.99
2018-12-15T09:24:07.409Z,1026.96
2018-12-15T09:25:07.433Z,1026.97
2018-12-15T09:26:07.452Z,1026.94
2018-12-15T09:27:07.533Z,1026.91
2018-12-15T09:28:07.563Z,1026.94
2018-12-15T09:29:07.646Z,1026.95
2018-12-15T09:30:07.738Z,1026.91
2018-12-15T09:31:07.843Z,1026.93
2018-12-15T09:32:08.200Z,1026.92
2018-12-15T09:33:08.327Z,1026.87
2018-12-15T09:34:08.688Z,1026.89
2018-12-15T09:35:08.918Z,1026.87
2018-12-15T09:36:08.937Z,1026.9
2018-12-15T09:37:09.297Z,1026.83
2018-12-15T09:38:09.634Z,1026.82
2018-12-15T09:39:09.972Z,1026.81
2018-12-15T09:40:10.371Z,1026.85
2018-12-15T09:41:10.406Z,1026.9
2018-12-15T09:42:10.416Z,1026.85
2018-12-15T09:43:10.445Z,1026.85
2018-12-15T09:44:10.559Z,1026.89
2018-12-15T09:45:10.562Z,1026.88
2018-12-15T09:46:10.587Z,1026.9
2018-12-15T09:47:10.608Z,1026.89
2018-12-15T09:48:10.970Z,1026.9
2018-12-15T09:49:17.534Z,1026.93
2018-12-15T09:50:11.011Z,1026.9
2018-12-15T09:51:11.035Z,1026.88
2018-12-15T09:52:11.141Z,1026.9
2018-12-15T09:53:11.511Z,1026.9
2018-12-15T09:54:11.524Z,1026.83
2018-12-15T09:55:11.640Z,1026.84
2018-12-15T09:56:11.665Z,1026.82
2018-12-15T09:57:12.102Z,1026.79
2018-12-15T09:58:12.501Z,1026.81
2018-12-15T09:59:12.855Z,1026.79
2018-12-15T10:00:12.926Z,1026.85
2018-12-15T10:01:12.901Z,1026.81
2018-12-15T10:02:12.925Z,1026.78
2018-12-15T10:03:12.959Z,1026.81
2018-12-15T10:04:12.968Z,1026.79
2018-12-15T10:05:12.995Z,1026.75
2018-12-15T10:06:13.021Z,1026.76
2018-12-15T10:07:13.032Z,1026.72
2018-12-15T10:08:13.052Z,1026.7
2018-12-15T10:09:13.078Z,1026.74
2018-12-15T10:10:13.536Z,1026.68
2018-12-15T10:11:13.974Z,1026.74
2018-12-15T10:12:13.995Z,1026.71
2018-12-15T10:13:14.461Z,1026.76
2018-12-15T10:14:14.474Z,1026.74
2018-12-15T10:15:14.489Z,1026.66
2018-12-15T10:16:14.663Z,1026.67
2018-12-15T10:17:14.684Z,1026.67
2018-12-15T10:18:14.707Z,1026.68
2018-12-15T10:19:14.725Z,1026.67
2018-12-15T10:20:14.761Z,1026.61
2018-12-15T10:21:14.777Z,1026.64
2018-12-15T10:22:14.967Z,1026.62
2018-12-15T10:23:14.994Z,1026.56
2018-12-15T10:24:15.422Z,1026.63
2018-12-15T10:25:15.448Z,1026.55
2018-12-15T10:26:15.467Z,1026.57
2018-12-15T10:27:15.667Z,1026.57
2018-12-15T10:28:15.687Z,1026.61
2018-12-15T10:29:16.074Z,1026.57
2018-12-15T10:30:15.740Z,1026.57
2018-12-15T10:31:16.030Z,1026.5
2018-12-15T10:32:15.773Z,1026.57
2018-12-15T10:33:16.257Z,1026.52
2018-12-15T10:34:16.272Z,1026.48
2018-12-15T10:35:16.542Z,1026.53
2018-12-15T10:36:16.304Z,1026.5
2018-12-15T10:37:16.326Z,1026.5
2018-12-15T10:38:16.681Z,1026.5
2018-12-15T10:39:16.384Z,1026.45
2018-12-15T10:40:16.601Z,1026.53
2018-12-15T10:41:17.009Z,1026.51
2018-12-15T10:42:16.738Z,1026.47
2018-12-15T10:43:16.880Z,1026.47
2018-12-15T10:44:16.901Z,1026.45
2018-12-15T10:45:17.470Z,1026.43
2018-12-15T10:46:17.496Z,1026.47
2018-12-15T10:47:17.507Z,1026.44
2018-12-15T10:48:17.943Z,1026.44
2018-12-15T10:49:17.957Z,1026.49
2018-12-15T10:50:18.029Z,1026.44
2018-12-15T10:51:18.000Z,1026.44
2018-12-15T10:52:18.023Z,1026.42
2018-12-15T10:53:18.043Z,1026.42
2018-12-15T10:54:18.060Z,1026.41
2018-12-15T10:55:18.082Z,1026.38
2018-12-15T10:56:18.114Z,1026.4
2018-12-15T10:57:18.138Z,1026.36
2018-12-15T10:58:18.148Z,1026.36
2018-12-15T10:59:18.171Z,1026.39
2018-12-15T11:01:18.760Z,1026.35
2018-12-15T11:02:18.729Z,1026.3
2018-12-15T11:03:18.892Z,1026.33
2018-12-15T11:04:18.927Z,1026.34
2018-12-15T11:05:19.337Z,1026.32
2018-12-15T11:06:19.349Z,1026.31
2018-12-15T11:07:19.761Z,1026.28
2018-12-15T11:08:19.801Z,1026.24
2018-12-15T11:09:20.221Z,1026.27
2018-12-15T11:10:20.249Z,1026.23
2018-12-15T11:11:20.451Z,1026.2
2018-12-15T11:12:20.479Z,1026.21
2018-12-15T11:13:20.482Z,1026.17
2018-12-15T11:14:20.514Z,1026.22
2018-12-15T11:15:21.059Z,1026.14
2018-12-15T11:16:21.502Z,1026.14
2018-12-15T11:17:21.755Z,1026.19
2018-12-15T11:18:21.769Z,1026.18
2018-12-15T11:19:21.786Z,1026.1
2018-12-15T11:20:21.816Z,1026.16
2018-12-15T11:21:21.837Z,1026.15
2018-12-15T11:22:21.851Z,1026.1
2018-12-15T11:23:21.871Z,1026.16
2018-12-15T11:24:21.883Z,1026.19
2018-12-15T11:25:21.914Z,1026.11
2018-12-15T11:26:22.386Z,1026.09
2018-12-15T11:27:22.517Z,1026.07
2018-12-15T11:28:22.554Z,1026.07
2018-12-15T11:29:22.564Z,1026.07
2018-12-15T11:30:22.598Z,1026.1
2018-12-15T11:31:22.614Z,1026.12
2018-12-15T11:32:22.677Z,1026.06
2018-12-15T11:33:22.663Z,1026.08
2018-12-15T11:34:22.681Z,1025.98
2018-12-15T11:35:22.691Z,1026.07
2018-12-15T11:36:22.713Z,1026.06
2018-12-15T11:37:23.081Z,1026.03
2018-12-15T11:38:22.767Z,1025.99
2018-12-15T11:39:22.785Z,1025.98
2018-12-15T11:40:23.186Z,1026.02
2018-12-15T11:41:23.627Z,1025.98
2018-12-15T11:42:23.654Z,1025.97
2018-12-15T11:43:24.105Z,1026.01
2018-12-15T11:44:24.122Z,1025.98
2018-12-15T11:45:24.152Z,1025.93
2018-12-15T11:46:24.609Z,1026.01
2018-12-15T11:47:24.616Z,1025.96
2018-12-15T11:48:24.653Z,1025.99
2018-12-15T11:49:25.108Z,1025.96
2018-12-15T11:50:25.222Z,1026.02
2018-12-15T11:51:25.150Z,1025.96
2018-12-15T11:52:25.176Z,1025.98
2018-12-15T11:53:25.476Z,1025.98
2018-12-15T11:54:25.224Z,1025.95
2018-12-15T11:55:25.245Z,1025.95
2018-12-15T11:56:25.265Z,1025.94
2018-12-15T11:57:25.278Z,1025.97
2018-12-15T11:58:25.743Z,1025.9
2018-12-15T11:59:25.776Z,1025.9
2018-12-15T12:00:25.793Z,1025.91
2018-12-15T12:01:25.805Z,1025.93
2018-12-15T12:02:31.659Z,1025.92
2018-12-15T12:03:25.860Z,1025.93
2018-12-15T12:04:25.880Z,1025.92
2018-12-15T12:05:25.913Z,1025.88
2018-12-15T12:06:25.930Z,1025.84
2018-12-15T12:07:26.234Z,1025.85
2018-12-15T12:08:26.267Z,1025.84
2018-12-15T12:09:26.275Z,1025.88
2018-12-15T12:10:26.293Z,1025.84
2018-12-15T12:11:26.771Z,1025.85
2018-12-15T12:12:26.791Z,1025.84
2018-12-15T12:13:26.813Z,1025.89
2018-12-15T12:14:26.832Z,1025.88